KACV/ACV METAR and TAF weather

Enter ICAO airport designator
Station Type Date Time Source
KACV METAR 2019/04/26 03:53 UTC NOAA

KACV 260353Z AUTO 00000KT 8SM CLR 09/08 A3006 RMK AO2 SLP186 T00940083


Station Type Date Time Source
KACV Decoded METAR 2019/04/26 03:53 UTC NOAA

ARCATA/EUREKA ARCATA AIRPORT, CA, United States (KACV) 40-59N 124-06W 67M
Apr 25, 2019 - 11:53 PM EDT / 2019.04.26 0353 UTC
Wind: Calm:0
Visibility: 8 mile(s):0
Sky conditions: clear
Temperature: 48.9 F (9.4 C)
Dew Point: 46.9 F (8.3 C)
Relative Humidity: 92%
Pressure (altimeter): 30.06 in. Hg (1017 hPa)
ob: KACV 260353Z AUTO 00000KT 8SM CLR 09/08 A3006 RMK AO2 SLP186 T00940083
cycle: 4

Station Type Date Time Source
KACV TAF 2019/04/25 20:06 UTC NOAA

TAF
AMD KACV 252003Z 2520/2618 29003KT 5SM BR OVC004
FM252100 25005KT 6SM BR BKN006
FM252300 30008KT P6SM FEW007
FM260300 31005KT 5SM BR BKN008
FM261700 34009KT P6SM SCT007

Example: see airport list